Churchill Airport
CYYQ : now visible

Airfield :











YOU CAN JOIN US ON...

 
LOGIN :

Register | Disclaimer

   EN    FR    IT 

 









Legend :    VFR   Marginal VFR   IFR   Intensive IFR   Very Intensive IFR
Visi :
Ceiling :
>= 8 km
>= 3000ft
5 to 8 km
1000 to 3000 ft
1500m to 5 km
500 to 1000 ft
800 to 1500m
200 to 500 ft
< 800m
< 200 ft
Symbols :   Thunderstorms  Fog  Heavy snow  Heavy precipitations  Wind > 20 kt







- Airport Elevation : 94 ft
- IATA code : YYQ


CYYQ - Churchill

CURRENT METAR :
  • 211000Z 23011KT 15SM SCT110 SCT130 BKN250 08/01 A2988 RMK AC3AC1CI2 SLP121

EXPIRED METARs :
  • 210900Z 22012KT 15SM BKN110 BKN130 07/01 A2989 RMK AC5AC2 VIRGA NE SLP125
  • 210800Z 21014G20KT 15SM BKN110 OVC130 08/01 A2991 RMK AC6AC2 SLP132

TAF TAF CYYQ
Valid from the 21 at 06:00 until the 22 at 06:00 UTC


210538Z 2106/2206 19012KT P6SM SCT150 BKN200
TEMPO 2106/2114 BKN120
BECMG 2109/2111 28012KT
FM211400 35015KT P6SM SCT010 BKN100
FM211800 36015KT P6SM BKN010 BKN100
FM220000 36012KT P6SM SCT010 RMK NXT FCST BY 211200Z
CZWG FIR / North America



MET'MAP, your aeronautical weather chart ! - Copyright ORBIFLY December 2007 - Disclaimer

ORBIFLY MET'MAP TEAM :

Programming & Development : Alexandra Zaïnal
Concept & Development : Baudouin d'Aumeries
Co-Development & Prog : Marc-Olivier Méhu
Technical & hardware support : Manuel Goepfert

Contact : metmap@orbifly.com




SOURCES & CREDITS :

   NOAA       Earth
Advisory